Main page
METAR-TAF:

METAR-TAF

Airports :

Bologna Guglielmo Marconi Airport

Bologna, Italy

latitude: 44-32N, longitude: 011-18E, elevation: 36 m

Current weather observation

The report was made 37 minutes ago, at 00:50 UTC
Wind 14 kt from the East
Temperature 11°C
Humidity 87%
Pressure 1002 hPa
Visibility 10 km or more
Broken clouds at a height of 6000 ft

METAR: LIPE 150050Z 09014KT 9999 BKN060 11/09 Q1002

Time: 02:27 (01:27 UTC)

Forecast

The report was made 2 hours and 27 minutes ago, at 23:00 UTC
Forecast valid from 15 at 00 UTC to 15 at 24 UTC
Wind 14 kt from the East
Visibility 10 km or more
Scattered clouds at a height of 3000 ft
Broken clouds at a height of 5000 ft
Temporary
from 15 at 06 UTC to 15 at 18 UTC
Visibility: 4000 m
rain showers
Becoming
from 15 at 10 UTC to 15 at 12 UTC
Wind 5 kt from variable directions

TAF: LIPE 142300Z 1500/1524 10014KT 9999 SCT030 BKN050 TEMPO 1506/1518 4000 SHRA BECMG 1510/1512 VRB05KT

Weather observations and forecasts of more than 4000 airports (METAR and TAF reports).

The available stations are represented by yellow and red dots on the map.

Hover mouse over dot to see the name of the station.

Then click to see weather observations and forecasts.

To change the map : click on the green buttons with a black cross to zoom in, on the green button with a dash to zoom out, or on the green arrows for adjacent maps.


METAR-TAF: